createdAt,value
2022-09-28T00:00:34.783Z,4.33
2022-09-28T00:03:02.575Z,4.20
2022-09-28T00:05:31.737Z,4.60
2022-09-28T00:07:59.378Z,3.87
2022-09-28T00:10:26.962Z,3.73
2022-09-28T00:12:55.141Z,4.97
2022-09-28T00:15:24.569Z,4.30
2022-09-28T00:17:52.083Z,4.20
2022-09-28T00:20:20.427Z,4.30
2022-09-28T00:22:49.219Z,3.80
2022-09-28T00:25:17.678Z,3.93
2022-09-28T00:27:50.824Z,4.30
2022-09-28T00:30:18.471Z,3.97
2022-09-28T00:32:45.990Z,5.00
2022-09-28T00:35:13.566Z,4.80
2022-09-28T00:37:41.103Z,4.77
2022-09-28T00:40:10.601Z,4.07
2022-09-28T00:42:38.543Z,4.50
2022-09-28T00:45:13.633Z,4.20
2022-09-28T00:47:46.779Z,5.30
2022-09-28T00:50:22.123Z,5.17
2022-09-28T00:52:54.925Z,4.57
2022-09-28T00:55:31.823Z,5.07
2022-09-28T00:58:03.985Z,4.87
2022-09-28T01:00:32.187Z,5.00
2022-09-28T01:03:00.421Z,5.60
2022-09-28T01:05:28.496Z,4.67
2022-09-28T01:07:57.591Z,5.60
2022-09-28T01:10:28.588Z,5.40
2022-09-28T01:12:56.379Z,4.78
2022-09-28T01:15:27.545Z,5.27
2022-09-28T01:18:07.947Z,5.10
2022-09-28T01:20:52.682Z,5.63
2022-09-28T01:23:38.593Z,6.07
2022-09-28T01:26:49.448Z,4.70
2022-09-28T01:29:23.002Z,5.07
2022-09-28T01:31:57.672Z,6.43
2022-09-28T01:34:30.657Z,5.90
2022-09-28T01:37:03.897Z,5.23
2022-09-28T01:39:33.821Z,5.40
2022-09-28T01:42:09.242Z,5.13
2022-09-28T01:44:41.345Z,5.67
2022-09-28T01:47:13.339Z,6.03
2022-09-28T01:49:45.836Z,5.20
2022-09-28T01:52:18.946Z,4.80
2022-09-28T01:54:51.542Z,5.20
2022-09-28T01:57:26.541Z,4.97
2022-09-28T02:00:00.790Z,5.70
2022-09-28T02:02:35.237Z,5.33
2022-09-28T02:05:08.846Z,5.60
2022-09-28T02:07:42.461Z,4.90
2022-09-28T02:10:15.940Z,4.90
2022-09-28T02:12:49.375Z,5.30
2022-09-28T02:15:21.517Z,6.07
2022-09-28T02:17:50.327Z,6.07
2022-09-28T02:20:18.202Z,7.00
2022-09-28T02:22:50.493Z,4.60
2022-09-28T02:25:24.791Z,6.70
2022-09-28T02:27:56.944Z,6.20
2022-09-28T02:30:24.519Z,6.80
2022-09-28T02:32:57.013Z,5.67
2022-09-28T02:35:24.778Z,6.30
2022-09-28T02:37:52.564Z,6.20
2022-09-28T02:40:22.897Z,5.07
2022-09-28T02:43:03.053Z,5.80
2022-09-28T02:45:44.673Z,5.33
2022-09-28T02:48:55.820Z,6.07
2022-09-28T02:51:27.164Z,5.77
2022-09-28T02:54:08.523Z,5.57
2022-09-28T02:57:09.279Z,5.27
2022-09-28T02:59:50.389Z,6.40
2022-09-28T03:02:29.810Z,6.05
2022-09-28T03:05:17.765Z,6.37
2022-09-28T03:07:53.089Z,5.13
2022-09-28T03:10:26.487Z,5.18
2022-09-28T03:12:55.768Z,5.20
2022-09-28T03:15:27.035Z,5.20
2022-09-28T03:17:57.511Z,5.83
2022-09-28T03:20:25.482Z,4.83
2022-09-28T03:23:19.685Z,4.90
2022-09-28T03:25:40.721Z,4.93
2022-09-28T03:28:08.144Z,4.60
2022-09-28T03:30:41.641Z,4.40
2022-09-28T03:33:09.511Z,4.47
2022-09-28T03:35:36.976Z,3.70
2022-09-28T03:38:04.527Z,4.00
2022-09-28T03:40:33.929Z,4.63
2022-09-28T03:43:01.632Z,4.33
2022-09-28T03:45:29.480Z,4.53
2022-09-28T03:47:58.317Z,4.80
2022-09-28T03:50:25.812Z,5.43
2022-09-28T03:52:53.243Z,5.70
2022-09-28T03:55:20.729Z,4.57
2022-09-28T03:57:54.800Z,5.07
2022-09-28T04:00:22.973Z,4.27
2022-09-28T04:02:50.572Z,4.83
2022-09-28T04:05:19.326Z,4.50
2022-09-28T04:07:48.400Z,4.18
2022-09-28T04:10:16.033Z,5.00
2022-09-28T04:12:43.513Z,4.33
2022-09-28T04:15:11.554Z,5.20
2022-09-28T04:17:40.356Z,5.30
2022-09-28T04:20:14.415Z,5.30
2022-09-28T04:22:58.675Z,4.57
2022-09-28T04:25:26.152Z,5.60
2022-09-28T04:28:10.977Z,4.50
2022-09-28T04:30:38.477Z,5.37
2022-09-28T04:33:06.373Z,4.40
2022-09-28T04:35:33.826Z,5.00
2022-09-28T04:38:04.030Z,3.80
2022-09-28T04:40:31.633Z,5.63
2022-09-28T04:42:59.261Z,5.13
2022-09-28T04:45:27.364Z,5.70
2022-09-28T04:47:59.640Z,5.07
2022-09-28T04:50:54.198Z,5.93
2022-09-28T04:53:25.529Z,6.23
2022-09-28T04:55:58.504Z,5.40
2022-09-28T04:58:26.596Z,5.30
2022-09-28T05:00:54.964Z,4.90
2022-09-28T05:03:41.089Z,4.50
2022-09-28T05:06:18.638Z,4.33
2022-09-28T05:08:49.435Z,6.63
2022-09-28T05:11:18.287Z,5.77
2022-09-28T05:13:46.679Z,5.97
2022-09-28T05:16:17.531Z,5.20
2022-09-28T05:19:11.590Z,7.93
2022-09-28T05:21:39.689Z,5.67
2022-09-28T05:24:08.735Z,5.00
2022-09-28T05:26:38.711Z,5.80
2022-09-28T05:29:08.053Z,6.10
2022-09-28T05:31:41.227Z,5.60
2022-09-28T05:34:35.144Z,5.73
2022-09-28T05:37:02.661Z,5.83
2022-09-28T05:39:32.850Z,6.70
2022-09-28T05:42:00.365Z,6.33
2022-09-28T05:44:28.051Z,5.80
2022-09-28T05:46:56.041Z,5.30
2022-09-28T05:49:24.047Z,6.70
2022-09-28T05:51:51.479Z,25.10
2022-09-28T05:54:18.997Z,16.37
2022-09-28T05:56:48.917Z,7.50
2022-09-28T05:59:19.665Z,12.43
2022-09-28T06:01:47.127Z,11.57
2022-09-28T06:04:16.044Z,10.40
2022-09-28T06:06:45.125Z,13.43
2022-09-28T06:09:12.595Z,8.93
2022-09-28T06:12:20.269Z,21.07
2022-09-28T06:14:55.239Z,9.87
2022-09-28T06:17:23.916Z,7.53
2022-09-28T06:20:12.471Z,10.90
2022-09-28T06:22:57.500Z,9.30
2022-09-28T06:25:27.727Z,6.83
2022-09-28T06:27:58.897Z,7.33
2022-09-28T06:30:28.422Z,6.33
2022-09-28T06:32:57.076Z,6.57
2022-09-28T06:35:26.275Z,7.70
2022-09-28T06:37:54.429Z,7.18
2022-09-28T06:40:23.337Z,9.73
2022-09-28T06:42:58.150Z,7.70
2022-09-28T06:45:52.792Z,6.00
2022-09-28T06:48:58.725Z,6.10
2022-09-28T06:51:47.072Z,6.00
2022-09-28T06:54:26.906Z,5.53
2022-09-28T06:57:10.264Z,5.57
2022-09-28T06:59:39.205Z,7.00
2022-09-28T07:02:07.909Z,6.67
2022-09-28T07:04:56.288Z,4.20
2022-09-28T07:07:55.157Z,5.65
2022-09-28T07:10:43.465Z,5.20
2022-09-28T07:13:48.967Z,4.27
2022-09-28T07:16:25.781Z,4.67
2022-09-28T07:18:54.982Z,3.80
2022-09-28T07:21:29.940Z,3.60
2022-09-28T07:24:01.417Z,4.07
2022-09-28T07:26:48.873Z,3.43
2022-09-28T07:29:34.928Z,4.20
2022-09-28T07:32:40.096Z,4.40
2022-09-28T07:35:24.001Z,5.03
2022-09-28T07:38:00.420Z,4.20
2022-09-28T07:40:48.320Z,4.17
2022-09-28T07:43:20.533Z,5.47
2022-09-28T07:45:53.932Z,4.57
2022-09-28T07:48:23.937Z,4.53
2022-09-28T07:51:05.567Z,4.22
2022-09-28T07:53:40.422Z,3.20
2022-09-28T07:56:34.801Z,3.20
2022-09-28T07:59:17.613Z,3.57
2022-09-28T08:02:09.757Z,3.53
2022-09-28T08:04:40.236Z,4.20
2022-09-28T08:07:10.277Z,3.50
2022-09-28T08:09:37.957Z,3.80
2022-09-28T08:12:24.240Z,4.07
2022-09-28T08:15:21.360Z,3.70
2022-09-28T08:18:08.329Z,3.83
2022-09-28T08:20:54.641Z,3.70
2022-09-28T08:23:23.475Z,4.60
2022-09-28T08:25:54.118Z,4.40
2022-09-28T08:28:24.397Z,4.33
2022-09-28T08:30:55.280Z,4.67
2022-09-28T08:33:54.431Z,4.23
2022-09-28T08:36:42.126Z,5.73
2022-09-28T08:39:29.538Z,3.87
2022-09-28T08:42:28.744Z,5.30
2022-09-28T08:45:20.130Z,5.10
2022-09-28T08:48:24.861Z,5.10
2022-09-28T08:51:16.419Z,4.77
2022-09-28T08:54:08.115Z,4.90
2022-09-28T08:56:53.197Z,5.37
2022-09-28T08:59:24.688Z,5.50
2022-09-28T09:02:03.431Z,4.50
2022-09-28T09:04:34.933Z,4.70
2022-09-28T09:07:30.522Z,5.13
2022-09-28T09:10:24.844Z,5.63
2022-09-28T09:13:05.026Z,5.90
2022-09-28T09:15:41.366Z,4.57
2022-09-28T09:18:26.060Z,4.40
2022-09-28T09:21:10.813Z,4.40
2022-09-28T09:23:52.954Z,5.37
2022-09-28T09:26:28.193Z,4.60
2022-09-28T09:29:14.619Z,5.57
2022-09-28T09:32:09.904Z,5.30
2022-09-28T09:34:52.165Z,4.50
2022-09-28T09:38:03.312Z,4.83
2022-09-28T09:41:03.561Z,4.75
2022-09-28T09:44:23.986Z,5.40
2022-09-28T09:46:56.212Z,5.17
2022-09-28T09:49:39.750Z,4.90
2022-09-28T09:52:14.620Z,5.60
2022-09-28T09:54:47.544Z,5.40
2022-09-28T09:57:36.069Z,4.83
2022-09-28T10:00:18.927Z,4.57
2022-09-28T10:03:00.121Z,4.63
2022-09-28T10:05:38.553Z,4.00
2022-09-28T10:08:15.265Z,4.13
2022-09-28T10:10:50.437Z,4.30
2022-09-28T10:13:20.425Z,3.50
2022-09-28T10:15:51.526Z,3.90
2022-09-28T10:18:30.321Z,3.20
2022-09-28T10:21:14.825Z,3.80
2022-09-28T10:23:58.747Z,3.50
2022-09-28T10:26:35.409Z,5.13
2022-09-28T10:29:06.195Z,3.80
2022-09-28T10:31:40.777Z,3.43
2022-09-28T10:34:27.703Z,7.07
2022-09-28T10:36:58.952Z,6.57
2022-09-28T10:39:33.977Z,4.13
2022-09-28T10:42:04.279Z,4.83
2022-09-28T10:44:34.872Z,5.10
2022-09-28T10:47:18.784Z,4.23
2022-09-28T10:49:50.554Z,3.70
2022-09-28T10:52:37.008Z,3.30
2022-09-28T10:55:25.597Z,3.47
2022-09-28T10:57:53.849Z,2.40
2022-09-28T11:00:40.105Z,3.30
2022-09-28T11:03:25.003Z,5.43
2022-09-28T11:05:57.977Z,3.20
2022-09-28T11:08:30.360Z,3.43
2022-09-28T11:11:06.755Z,5.20
2022-09-28T11:13:41.057Z,3.50
2022-09-28T11:16:29.399Z,3.37
2022-09-28T11:19:04.127Z,2.40
2022-09-28T11:21:42.874Z,3.30
2022-09-28T11:24:20.833Z,3.03
2022-09-28T11:26:53.486Z,3.20
2022-09-28T11:29:35.566Z,2.70
2022-09-28T11:32:24.971Z,2.57
2022-09-28T11:35:24.163Z,3.20
2022-09-28T11:38:04.365Z,3.40
2022-09-28T11:41:07.235Z,2.20
2022-09-28T11:43:51.548Z,2.90
2022-09-28T11:46:28.379Z,3.08
2022-09-28T11:49:07.971Z,2.90
2022-09-28T11:51:40.820Z,2.70
2022-09-28T11:54:15.694Z,2.47
2022-09-28T11:56:46.945Z,2.93
2022-09-28T11:59:19.777Z,2.85
2022-09-28T12:01:54.198Z,2.87
2022-09-28T12:04:36.780Z,2.47
2022-09-28T12:07:11.913Z,2.80
2022-09-28T12:09:47.472Z,2.90
2022-09-28T12:12:25.388Z,3.03
2022-09-28T12:15:01.076Z,4.00
2022-09-28T12:17:34.695Z,3.55
2022-09-28T12:20:06.533Z,3.40
2022-09-28T12:22:42.531Z,5.07
2022-09-28T12:25:15.497Z,4.30
2022-09-28T12:27:49.333Z,3.30
2022-09-28T12:30:20.222Z,4.37
2022-09-28T12:32:53.342Z,3.40
2022-09-28T12:35:27.180Z,4.37
2022-09-28T12:38:13.034Z,3.43
2022-09-28T12:40:53.647Z,2.90
2022-09-28T12:43:33.914Z,2.93
2022-09-28T12:46:30.654Z,2.60
2022-09-28T12:52:33.924Z,2.57
2022-09-28T12:55:19.039Z,3.27
2022-09-28T12:57:59.913Z,2.50
2022-09-28T13:00:37.268Z,2.50
2022-09-28T13:03:41.106Z,2.97
2022-09-28T13:06:21.655Z,2.23
2022-09-28T13:09:03.146Z,2.60
2022-09-28T13:11:38.355Z,2.53
2022-09-28T13:14:27.658Z,2.35
2022-09-28T13:17:01.624Z,3.00
2022-09-28T13:19:37.818Z,3.17
2022-09-28T13:22:22.766Z,2.33
2022-09-28T13:24:51.320Z,2.30
2022-09-28T13:27:35.249Z,2.65
2022-09-28T13:30:07.773Z,2.30
2022-09-28T13:32:38.930Z,2.30
2022-09-28T13:35:07.167Z,1.93
2022-09-28T13:37:34.955Z,2.17
2022-09-28T13:40:06.054Z,2.60
2022-09-28T13:43:06.643Z,2.57
2022-09-28T13:45:56.746Z,2.03
2022-09-28T13:48:35.744Z,1.83
2022-09-28T13:51:15.181Z,2.27
2022-09-28T13:53:58.757Z,1.75
2022-09-28T13:56:35.146Z,1.90
2022-09-28T13:59:13.835Z,1.93
2022-09-28T14:01:48.739Z,2.03
2022-09-28T14:04:19.419Z,1.83
2022-09-28T14:06:54.786Z,2.30
2022-09-28T14:09:43.915Z,2.20
2022-09-28T14:12:45.278Z,3.03
2022-09-28T14:15:44.562Z,2.83
2022-09-28T14:18:23.897Z,3.00
2022-09-28T14:21:05.188Z,2.10
2022-09-28T14:24:05.893Z,2.50
2022-09-28T14:27:07.237Z,2.10
2022-09-28T14:29:37.236Z,3.10
2022-09-28T14:32:23.587Z,2.70
2022-09-28T14:34:58.148Z,2.43
2022-09-28T14:37:47.276Z,2.43
2022-09-28T14:40:37.756Z,3.10
2022-09-28T14:43:29.131Z,3.17
2022-09-28T14:46:30.141Z,3.28
2022-09-28T14:49:03.192Z,2.30
2022-09-28T14:52:07.134Z,2.85
2022-09-28T14:54:49.959Z,3.03
2022-09-28T14:57:20.778Z,2.67
2022-09-28T14:59:48.792Z,3.20
2022-09-28T15:02:30.389Z,3.00
2022-09-28T15:05:08.446Z,3.20
2022-09-28T15:07:47.498Z,2.40
2022-09-28T15:10:31.979Z,2.70
2022-09-28T15:13:18.579Z,2.77
2022-09-28T15:16:04.436Z,2.97
2022-09-28T15:18:57.731Z,3.00
2022-09-28T15:21:34.406Z,2.63
2022-09-28T15:24:02.689Z,2.97
2022-09-28T15:26:32.717Z,3.20
2022-09-28T15:29:07.148Z,3.13
2022-09-28T15:31:37.913Z,4.43
2022-09-28T15:34:23.410Z,3.37
2022-09-28T15:37:09.498Z,2.90
2022-09-28T15:39:39.028Z,2.73
2022-09-28T15:42:07.918Z,3.10
2022-09-28T15:44:38.207Z,5.70
2022-09-28T15:47:15.981Z,5.80
2022-09-28T15:49:56.868Z,6.10
2022-09-28T15:52:47.398Z,5.40
2022-09-28T15:55:23.637Z,3.63
2022-09-28T15:57:51.490Z,3.70
2022-09-28T16:00:28.337Z,3.33
2022-09-28T16:03:22.064Z,3.70
2022-09-28T16:05:52.073Z,3.33
2022-09-28T16:08:24.481Z,2.57
2022-09-28T16:11:05.582Z,2.93
2022-09-28T16:13:34.122Z,3.07
2022-09-28T16:16:02.376Z,2.60
2022-09-28T16:18:36.543Z,3.23
2022-09-28T16:21:26.513Z,3.77
2022-09-28T16:23:56.932Z,3.60
2022-09-28T16:26:44.652Z,3.80
2022-09-28T16:29:40.093Z,3.53
2022-09-28T16:32:42.970Z,4.37
2022-09-28T16:35:29.014Z,3.20
2022-09-28T16:37:59.671Z,4.03
2022-09-28T16:40:28.910Z,3.30
2022-09-28T16:43:03.031Z,2.90
2022-09-28T16:45:30.816Z,3.10
2022-09-28T16:47:58.733Z,3.43
2022-09-28T16:50:27.045Z,3.00
2022-09-28T16:53:18.224Z,3.03
2022-09-28T16:55:49.456Z,2.60
2022-09-28T16:58:16.980Z,3.17
2022-09-28T17:00:45.657Z,2.90
2022-09-28T17:03:18.587Z,2.63
2022-09-28T17:05:48.661Z,2.97
2022-09-28T17:08:18.275Z,3.20
2022-09-28T17:13:40.856Z,3.10
2022-09-28T17:16:12.826Z,2.53
2022-09-28T17:18:40.576Z,2.70
2022-09-28T17:21:12.223Z,2.67
2022-09-28T17:23:40.009Z,2.97
2022-09-28T17:26:09.837Z,2.67
2022-09-28T17:28:37.776Z,2.53
2022-09-28T17:31:07.453Z,2.90
2022-09-28T17:33:35.041Z,3.03
2022-09-28T17:36:04.654Z,3.03
2022-09-28T17:38:32.314Z,3.30
2022-09-28T17:40:59.795Z,3.50
2022-09-28T17:43:28.697Z,3.70
2022-09-28T17:45:56.450Z,3.27
2022-09-28T17:48:24.267Z,3.47
2022-09-28T17:50:52.041Z,3.30
2022-09-28T17:53:19.554Z,3.50
2022-09-28T17:55:47.095Z,3.23
2022-09-28T17:58:17.944Z,3.20
2022-09-28T18:00:48.340Z,3.60
2022-09-28T18:03:18.179Z,3.33
2022-09-28T18:05:46.611Z,3.70
2022-09-28T18:08:16.535Z,3.00
2022-09-28T18:10:46.275Z,3.77
2022-09-28T18:13:14.303Z,3.10
2022-09-28T18:15:42.352Z,3.47
2022-09-28T18:18:12.792Z,2.97
2022-09-28T18:20:41.294Z,3.73
2022-09-28T18:23:09.020Z,3.60
2022-09-28T18:25:40.439Z,2.90
2022-09-28T18:28:08.182Z,3.77
2022-09-28T18:30:39.913Z,3.10
2022-09-28T18:33:07.830Z,3.60
2022-09-28T18:35:37.035Z,4.20
2022-09-28T18:38:06.098Z,3.80
2022-09-28T18:40:34.336Z,4.30
2022-09-28T18:43:02.069Z,3.70
2022-09-28T18:45:29.657Z,5.30
2022-09-28T18:47:58.476Z,4.30
2022-09-28T18:50:26.515Z,4.03
2022-09-28T18:53:11.213Z,4.47
2022-09-28T18:55:39.757Z,4.30
2022-09-28T18:58:08.133Z,4.40
2022-09-28T19:00:35.691Z,4.50
2022-09-28T19:03:03.638Z,4.83
2022-09-28T19:05:31.336Z,5.80
2022-09-28T19:08:00.967Z,4.80
2022-09-28T19:10:28.576Z,5.00
2022-09-28T19:12:56.250Z,4.40
2022-09-28T19:15:25.691Z,5.10
2022-09-28T19:17:53.304Z,5.77
2022-09-28T19:20:21.254Z,6.63
2022-09-28T19:22:50.550Z,6.50
2022-09-28T19:25:19.567Z,5.75
2022-09-28T19:27:47.849Z,6.20
2022-09-28T19:30:15.604Z,5.25
2022-09-28T19:32:43.470Z,6.27
2022-09-28T19:35:11.104Z,6.23
2022-09-28T19:37:39.352Z,9.23
2022-09-28T19:40:08.125Z,6.82
2022-09-28T19:42:37.252Z,7.70
2022-09-28T19:45:05.584Z,6.57
2022-09-28T19:47:33.200Z,6.50
2022-09-28T19:50:00.930Z,6.70
2022-09-28T19:52:28.620Z,6.25
2022-09-28T19:54:57.039Z,7.20
2022-09-28T19:57:25.982Z,6.87
2022-09-28T20:00:00.772Z,7.23
2022-09-28T20:02:33.463Z,7.47
2022-09-28T20:05:01.265Z,6.37
2022-09-28T20:07:32.612Z,6.07
2022-09-28T20:10:00.241Z,6.90
2022-09-28T20:12:27.990Z,6.53
2022-09-28T20:14:56.932Z,5.93
2022-09-28T20:17:24.520Z,5.97
2022-09-28T20:19:52.355Z,6.33
2022-09-28T20:22:20.251Z,5.50
2022-09-28T20:24:48.192Z,6.30
2022-09-28T20:27:15.804Z,6.33
2022-09-28T20:29:43.601Z,5.97
2022-09-28T20:32:12.561Z,5.90
2022-09-28T20:34:42.171Z,5.30
2022-09-28T20:37:13.566Z,5.60
2022-09-28T20:39:44.753Z,6.00
2022-09-28T20:42:14.297Z,6.63
2022-09-28T20:44:42.283Z,5.73
2022-09-28T20:47:09.934Z,5.80
2022-09-28T20:49:40.714Z,5.30
2022-09-28T20:52:11.340Z,5.80
2022-09-28T20:54:39.015Z,5.03
2022-09-28T20:57:17.164Z,4.47
2022-09-28T20:59:44.784Z,4.93
2022-09-28T21:02:13.009Z,5.10
2022-09-28T21:04:42.195Z,6.03
2022-09-28T21:07:10.124Z,5.35
2022-09-28T21:09:38.624Z,4.23
2022-09-28T21:12:06.759Z,6.13
2022-09-28T21:14:34.491Z,5.27
2022-09-28T21:17:02.095Z,5.00
2022-09-28T21:19:29.847Z,5.50
2022-09-28T21:21:58.795Z,4.77
2022-09-28T21:24:26.645Z,4.10
2022-09-28T21:26:55.490Z,5.50
2022-09-28T21:29:23.143Z,5.03
2022-09-28T21:31:50.734Z,4.60
2022-09-28T21:34:20.423Z,5.27
2022-09-28T21:36:51.187Z,6.30
2022-09-28T21:39:20.993Z,4.97
2022-09-28T21:41:48.765Z,4.40
2022-09-28T21:44:16.607Z,4.07
2022-09-28T21:46:44.313Z,4.80
2022-09-28T21:49:14.114Z,4.33
2022-09-28T21:51:41.779Z,4.53
2022-09-28T21:54:09.481Z,4.83
2022-09-28T21:56:38.420Z,6.17
2022-09-28T21:59:06.052Z,5.77
2022-09-28T22:01:33.726Z,6.57
2022-09-28T22:04:01.682Z,5.70
2022-09-28T22:06:29.470Z,5.23
2022-09-28T22:08:57.747Z,5.90
2022-09-28T22:11:26.957Z,6.33
2022-09-28T22:13:57.710Z,5.93
2022-09-28T22:16:28.218Z,5.17
2022-09-28T22:18:56.024Z,6.37
2022-09-28T22:21:25.551Z,5.80
2022-09-28T22:23:53.438Z,4.90
2022-09-28T22:26:23.463Z,5.53
2022-09-28T22:28:53.008Z,6.10
2022-09-28T22:31:24.830Z,5.70
2022-09-28T22:33:52.909Z,5.57
2022-09-28T22:36:20.944Z,6.57
2022-09-28T22:38:49.519Z,5.33
2022-09-28T22:41:20.572Z,6.23
2022-09-28T22:43:49.186Z,6.10
2022-09-28T22:46:18.196Z,6.80
2022-09-28T22:48:49.613Z,5.20
2022-09-28T22:51:18.378Z,5.43
2022-09-28T22:53:46.553Z,6.27
2022-09-28T22:56:18.658Z,4.70
2022-09-28T22:58:47.365Z,6.03
2022-09-28T23:01:17.668Z,5.72
2022-09-28T23:03:45.578Z,6.33
2022-09-28T23:06:17.147Z,5.27
2022-09-28T23:08:45.460Z,5.87
2022-09-28T23:11:13.032Z,5.27
2022-09-28T23:13:40.589Z,6.33
2022-09-28T23:16:09.574Z,6.17
2022-09-28T23:18:40.729Z,5.43
2022-09-28T23:21:11.312Z,5.40
2022-09-28T23:23:40.212Z,5.70
2022-09-28T23:26:11.900Z,4.80
2022-09-28T23:28:39.594Z,5.73
2022-09-28T23:31:11.671Z,4.43
2022-09-28T23:33:39.525Z,5.07
2022-09-28T23:36:08.376Z,5.13
2022-09-28T23:38:36.309Z,4.93
2022-09-28T23:41:05.411Z,5.60
2022-09-28T23:43:33.150Z,5.70
2022-09-28T23:46:00.813Z,5.40
2022-09-28T23:48:28.450Z,4.70
2022-09-28T23:50:56.120Z,4.30
2022-09-28T23:53:23.768Z,4.97
2022-09-28T23:55:51.552Z,5.00
2022-09-28T23:58:20.544Z,4.60
